createdAt,value
2023-04-28T00:01:14.210Z,10.68
2023-04-28T00:03:41.181Z,11.00
2023-04-28T00:06:08.380Z,12.07
2023-04-28T00:08:35.341Z,10.82
2023-04-28T00:11:02.087Z,12.23
2023-04-28T00:13:28.864Z,12.15
2023-04-28T00:15:56.165Z,12.02
2023-04-28T00:18:22.958Z,11.65
2023-04-28T00:20:50.102Z,11.57
2023-04-28T00:23:17.058Z,11.77
2023-04-28T00:25:44.860Z,11.65
2023-04-28T00:28:14.181Z,11.45
2023-04-28T00:30:45.176Z,12.48
2023-04-28T00:33:14.114Z,11.55
2023-04-28T00:35:42.181Z,11.25
2023-04-28T00:38:09.129Z,11.82
2023-04-28T00:40:37.241Z,11.52
2023-04-28T00:43:04.808Z,11.32
2023-04-28T00:45:32.326Z,11.65
2023-04-28T00:47:59.850Z,12.68
2023-04-28T00:50:26.946Z,11.65
2023-04-28T00:52:53.625Z,12.25
2023-04-28T00:55:21.793Z,11.25
2023-04-28T00:57:48.805Z,11.82
2023-04-28T01:00:16.145Z,11.38
2023-04-28T01:02:43.081Z,11.38
2023-04-28T01:05:11.288Z,11.48
2023-04-28T01:07:38.138Z,11.10
2023-04-28T01:10:07.256Z,12.35
2023-04-28T01:12:35.096Z,11.73
2023-04-28T01:15:02.801Z,10.95
2023-04-28T01:17:30.895Z,11.80
2023-04-28T01:19:57.752Z,10.75
2023-04-28T01:22:24.556Z,11.95
2023-04-28T01:24:51.257Z,12.02
2023-04-28T01:27:18.039Z,11.30
2023-04-28T01:29:44.722Z,11.35
2023-04-28T01:32:11.683Z,12.05
2023-04-28T01:34:39.715Z,10.75
2023-04-28T01:37:06.902Z,11.88
2023-04-28T01:39:35.090Z,11.07
2023-04-28T01:42:03.545Z,10.57
2023-04-28T01:44:30.279Z,11.15
2023-04-28T01:46:57.012Z,9.82
2023-04-28T01:49:24.099Z,11.15
2023-04-28T01:51:51.100Z,10.82
2023-04-28T01:54:18.063Z,10.02
2023-04-28T01:56:45.086Z,9.95
2023-04-28T01:59:14.572Z,10.15
2023-04-28T02:01:41.753Z,10.05
2023-04-28T02:04:08.664Z,10.25
2023-04-28T02:06:37.177Z,9.27
2023-04-28T02:09:03.986Z,9.98
2023-04-28T02:11:33.210Z,9.45
2023-04-28T02:13:59.938Z,9.38
2023-04-28T02:16:26.760Z,9.95
2023-04-28T02:18:53.612Z,9.60
2023-04-28T02:21:20.341Z,10.55
2023-04-28T02:23:47.690Z,9.27
2023-04-28T02:26:14.533Z,9.57
2023-04-28T02:28:41.822Z,9.38
2023-04-28T02:31:10.909Z,9.52
2023-04-28T02:33:38.742Z,8.57
2023-04-28T02:36:07.699Z,8.55
2023-04-28T02:38:35.401Z,8.23
2023-04-28T02:41:07.363Z,9.18
2023-04-28T02:43:35.592Z,10.32
2023-04-28T02:46:05.942Z,9.68
2023-04-28T02:48:35.520Z,9.52
2023-04-28T02:51:02.635Z,9.57
2023-04-28T02:53:29.649Z,8.32
2023-04-28T02:55:56.913Z,9.60
2023-04-28T02:58:23.744Z,8.55
2023-04-28T03:00:50.651Z,8.43
2023-04-28T03:03:18.011Z,8.80
2023-04-28T03:05:45.393Z,9.60
2023-04-28T03:08:12.126Z,9.02
2023-04-28T03:10:38.933Z,9.43
2023-04-28T03:13:06.291Z,9.00
2023-04-28T03:15:33.299Z,9.55
2023-04-28T03:18:01.266Z,8.90
2023-04-28T03:20:28.949Z,8.57
2023-04-28T03:22:55.731Z,9.05
2023-04-28T03:25:22.661Z,9.15
2023-04-28T03:27:51.192Z,9.10
2023-04-28T03:30:17.991Z,9.40
2023-04-28T03:32:46.209Z,9.55
2023-04-28T03:35:13.813Z,9.23
2023-04-28T03:37:41.806Z,8.48
2023-04-28T03:40:09.235Z,8.90
2023-04-28T03:43:14.609Z,9.10
2023-04-28T03:46:06.746Z,9.27
2023-04-28T03:48:33.537Z,8.98
2023-04-28T03:51:00.330Z,8.77
2023-04-28T03:53:27.237Z,9.27
2023-04-28T03:55:54.109Z,9.20
2023-04-28T03:58:20.987Z,8.52
2023-04-28T04:00:47.824Z,8.65
2023-04-28T04:03:14.763Z,8.48
2023-04-28T04:05:44.113Z,8.68
2023-04-28T04:08:11.246Z,9.05
2023-04-28T04:10:38.283Z,9.13
2023-04-28T04:13:05.079Z,7.88
2023-04-28T04:15:32.082Z,8.15
2023-04-28T04:17:59.219Z,8.32
2023-04-28T04:20:29.986Z,9.02
2023-04-28T04:22:57.240Z,8.10
2023-04-28T04:25:24.188Z,8.93
2023-04-28T04:27:52.572Z,9.32
2023-04-28T04:30:19.385Z,8.52
2023-04-28T04:32:46.152Z,7.70
2023-04-28T04:35:12.879Z,8.85
2023-04-28T04:37:39.840Z,9.43
2023-04-28T04:40:07.537Z,8.70
2023-04-28T04:42:39.952Z,8.05
2023-04-28T04:45:09.483Z,9.38
2023-04-28T04:47:36.877Z,7.68
2023-04-28T04:50:06.627Z,8.18
2023-04-28T04:52:33.473Z,8.23
2023-04-28T04:55:00.357Z,8.57
2023-04-28T04:57:27.267Z,8.63
2023-04-28T05:00:06.336Z,8.63
2023-04-28T05:02:33.380Z,7.93
2023-04-28T05:05:12.259Z,7.78
2023-04-28T05:07:48.147Z,7.75
2023-04-28T05:10:15.027Z,8.38
2023-04-28T05:12:47.598Z,7.35
2023-04-28T05:15:17.402Z,8.13
2023-04-28T05:17:57.387Z,8.15
2023-04-28T05:20:24.481Z,7.13
2023-04-28T05:22:51.501Z,8.02
2023-04-28T05:25:18.380Z,8.10
2023-04-28T05:27:45.407Z,7.15
2023-04-28T05:30:12.630Z,7.57
2023-04-28T05:32:39.445Z,7.38
2023-04-28T05:35:07.241Z,7.35
2023-04-28T05:37:34.616Z,6.65
2023-04-28T05:40:02.659Z,7.07
2023-04-28T05:42:29.873Z,7.15
2023-04-28T05:44:56.871Z,7.90
2023-04-28T05:47:23.766Z,6.97
2023-04-28T05:49:52.951Z,7.03
2023-04-28T05:52:19.652Z,6.78
2023-04-28T05:54:46.955Z,7.03
2023-04-28T05:57:14.705Z,6.38
2023-04-28T05:59:41.531Z,7.20
2023-04-28T06:02:08.277Z,7.10
2023-04-28T06:04:38.239Z,6.75
2023-04-28T06:07:05.313Z,7.22
2023-04-28T06:09:33.242Z,7.18
2023-04-28T06:12:00.664Z,7.53
2023-04-28T06:14:27.418Z,6.55
2023-04-28T06:16:54.128Z,7.07
2023-04-28T06:19:21.153Z,6.97
2023-04-28T06:21:51.493Z,8.02
2023-04-28T06:24:18.962Z,6.85
2023-04-28T06:26:47.378Z,7.38
2023-04-28T06:29:14.299Z,8.85
2023-04-28T06:31:41.074Z,7.43
2023-04-28T06:34:08.348Z,7.60
2023-04-28T06:36:36.181Z,9.32
2023-04-28T06:39:04.422Z,6.65
2023-04-28T06:41:32.631Z,7.32
2023-04-28T06:44:01.502Z,6.82
2023-04-28T06:46:30.267Z,6.05
2023-04-28T06:48:57.581Z,7.20
2023-04-28T06:51:24.880Z,6.97
2023-04-28T06:53:53.287Z,7.07
2023-04-28T06:56:20.346Z,6.82
2023-04-28T06:58:48.243Z,6.47
2023-04-28T07:01:14.986Z,6.03
2023-04-28T07:03:43.078Z,6.57
2023-04-28T07:06:09.985Z,6.10
2023-04-28T07:08:37.181Z,6.30
2023-04-28T07:11:07.077Z,6.07
2023-04-28T07:13:34.048Z,6.22
2023-04-28T07:16:01.174Z,6.35
2023-04-28T07:18:28.631Z,7.07
2023-04-28T07:20:55.547Z,6.75
2023-04-28T07:23:22.390Z,6.60
2023-04-28T07:25:49.041Z,6.63
2023-04-28T07:28:15.827Z,6.63
2023-04-28T07:30:42.600Z,6.18
2023-04-28T07:33:09.459Z,6.68
2023-04-28T07:35:36.446Z,6.40
2023-04-28T07:38:03.542Z,6.35
2023-04-28T07:40:30.386Z,7.00
2023-04-28T07:42:57.495Z,6.53
2023-04-28T07:45:24.465Z,6.65
2023-04-28T07:47:51.513Z,6.53
2023-04-28T07:50:18.431Z,6.78
2023-04-28T07:52:45.422Z,6.82
2023-04-28T07:55:12.141Z,7.30
2023-04-28T07:57:39.155Z,7.88
2023-04-28T08:00:06.614Z,7.05
2023-04-28T08:05:07.806Z,7.07
2023-04-28T08:07:35.475Z,6.40
2023-04-28T08:10:02.245Z,7.55
2023-04-28T08:12:29.025Z,7.00
2023-04-28T08:14:56.523Z,7.20
2023-04-28T08:17:23.494Z,6.82
2023-04-28T08:19:50.427Z,6.57
2023-04-28T08:22:17.480Z,7.32
2023-04-28T08:24:44.184Z,7.00
2023-04-28T08:27:10.961Z,7.25
2023-04-28T08:29:37.807Z,7.00
2023-04-28T08:32:06.547Z,7.30
2023-04-28T08:34:34.030Z,7.03
2023-04-28T08:37:01.204Z,7.40
2023-04-28T08:39:28.458Z,7.50
2023-04-28T08:41:56.736Z,8.10
2023-04-28T08:44:23.785Z,7.22
2023-04-28T08:46:53.983Z,7.53
2023-04-28T08:49:27.435Z,7.95
2023-04-28T08:51:59.891Z,7.22
2023-04-28T08:54:53.287Z,7.82
2023-04-28T08:57:21.163Z,7.28
2023-04-28T08:59:49.486Z,7.05
2023-04-28T09:02:16.820Z,7.45
2023-04-28T09:04:44.230Z,7.18
2023-04-28T09:07:12.217Z,7.38
2023-04-28T09:09:40.767Z,8.95
2023-04-28T09:12:07.892Z,6.97
2023-04-28T09:14:36.862Z,8.25
2023-04-28T09:17:13.366Z,7.45
2023-04-28T09:19:43.326Z,6.90
2023-04-28T09:22:21.778Z,7.75
2023-04-28T09:24:53.530Z,8.35
2023-04-28T09:27:29.405Z,8.15
2023-04-28T09:29:56.676Z,8.60
2023-04-28T09:32:28.811Z,8.00
2023-04-28T09:34:59.671Z,8.50
2023-04-28T09:37:30.417Z,7.65
2023-04-28T09:40:05.577Z,8.20
2023-04-28T09:42:43.224Z,7.75
2023-04-28T09:45:11.792Z,8.25
2023-04-28T09:47:41.892Z,8.48
2023-04-28T09:50:12.594Z,9.07
2023-04-28T09:52:41.369Z,8.40
2023-04-28T09:55:08.681Z,8.07
2023-04-28T09:57:36.710Z,8.50
2023-04-28T10:00:09.121Z,8.25
2023-04-28T10:05:09.661Z,7.70
2023-04-28T10:07:37.527Z,8.15
2023-04-28T10:10:05.389Z,8.65
2023-04-28T10:12:32.866Z,7.93
2023-04-28T10:15:01.857Z,7.70
2023-04-28T10:17:29.556Z,7.80
2023-04-28T10:19:57.305Z,8.68
2023-04-28T10:22:51.135Z,8.60
2023-04-28T10:25:22.202Z,7.90
2023-04-28T10:27:49.803Z,8.15
2023-04-28T10:30:29.290Z,7.95
2023-04-28T10:33:09.422Z,7.90
2023-04-28T10:35:40.763Z,7.60
2023-04-28T10:38:08.879Z,7.25
2023-04-28T10:40:42.970Z,7.78
2023-04-28T10:43:13.833Z,7.47
2023-04-28T10:46:02.081Z,6.70
2023-04-28T10:48:37.391Z,7.30
2023-04-28T10:51:10.393Z,7.03
2023-04-28T10:53:47.150Z,7.38
2023-04-28T10:56:19.836Z,7.57
2023-04-28T10:58:51.077Z,6.70
2023-04-28T11:01:21.126Z,7.20
2023-04-28T11:03:48.875Z,8.02
2023-04-28T11:06:26.438Z,7.18
2023-04-28T11:08:55.524Z,7.85
2023-04-28T11:11:34.786Z,7.47
2023-04-28T11:14:20.151Z,6.65
2023-04-28T11:17:00.002Z,6.97
2023-04-28T11:19:28.874Z,8.00
2023-04-28T11:21:57.362Z,6.90
2023-04-28T11:24:25.809Z,6.32
2023-04-28T11:26:59.213Z,7.07
2023-04-28T11:29:35.234Z,7.68
2023-04-28T11:32:03.728Z,7.65
2023-04-28T11:34:30.774Z,7.30
2023-04-28T11:36:57.549Z,7.97
2023-04-28T11:39:32.841Z,7.68
2023-04-28T11:42:02.197Z,8.10
2023-04-28T11:44:31.597Z,7.22
2023-04-28T11:47:03.680Z,7.60
2023-04-28T11:49:43.728Z,8.00
2023-04-28T11:52:11.354Z,7.30
2023-04-28T11:54:38.986Z,7.57
2023-04-28T11:57:06.692Z,7.38
2023-04-28T11:59:36.925Z,8.25
2023-04-28T12:02:06.808Z,7.47
2023-04-28T12:04:38.225Z,7.60
2023-04-28T12:07:19.008Z,7.70
2023-04-28T12:09:48.699Z,7.13
2023-04-28T12:12:39.951Z,9.20
2023-04-28T12:15:15.669Z,8.15
2023-04-28T12:17:43.553Z,8.23
2023-04-28T12:20:12.635Z,8.35
2023-04-28T12:22:46.923Z,9.38
2023-04-28T12:25:16.510Z,9.57
2023-04-28T12:27:59.896Z,10.20
2023-04-28T12:30:31.978Z,10.57
2023-04-28T12:32:58.917Z,9.77
2023-04-28T12:35:27.313Z,10.23
2023-04-28T12:37:55.294Z,11.25
2023-04-28T12:40:22.874Z,11.82
2023-04-28T12:42:50.822Z,11.23
2023-04-28T12:45:17.830Z,10.82
2023-04-28T12:47:44.699Z,10.93
2023-04-28T12:50:11.528Z,11.13
2023-04-28T12:52:38.346Z,11.35
2023-04-28T12:55:05.888Z,10.55
2023-04-28T12:57:32.965Z,12.70
2023-04-28T12:59:59.973Z,13.55
2023-04-28T13:02:27.265Z,13.18
2023-04-28T13:04:54.506Z,12.52
2023-04-28T13:07:21.991Z,12.02
2023-04-28T13:09:49.116Z,12.07
2023-04-28T13:12:16.062Z,11.90
2023-04-28T13:14:42.866Z,13.55
2023-04-28T13:17:10.664Z,11.68
2023-04-28T13:19:40.236Z,13.32
2023-04-28T13:22:07.305Z,13.85
2023-04-28T13:24:34.111Z,13.45
2023-04-28T13:27:00.809Z,14.55
2023-04-28T13:29:27.695Z,15.48
2023-04-28T13:31:54.859Z,16.65
2023-04-28T13:34:21.707Z,16.73
2023-04-28T13:36:50.848Z,17.73
2023-04-28T13:39:20.085Z,17.65
2023-04-28T13:41:46.957Z,17.88
2023-04-28T13:44:14.186Z,20.23
2023-04-28T13:46:41.764Z,20.02
2023-04-28T13:49:11.760Z,21.00
2023-04-28T13:51:39.961Z,21.42
2023-04-28T13:54:11.434Z,22.33
2023-04-28T13:56:38.944Z,21.57
2023-04-28T13:59:05.823Z,24.33
2023-04-28T14:01:33.123Z,23.38
2023-04-28T14:04:00.446Z,24.13
2023-04-28T14:06:27.858Z,24.83
2023-04-28T14:08:54.744Z,24.65
2023-04-28T14:11:21.629Z,26.67
2023-04-28T14:13:48.458Z,24.75
2023-04-28T14:16:15.734Z,25.35
2023-04-28T14:18:42.502Z,24.67
2023-04-28T14:21:09.195Z,25.02
2023-04-28T14:23:36.577Z,25.40
2023-04-28T14:26:03.587Z,24.83
2023-04-28T14:28:30.433Z,24.15
2023-04-28T14:30:57.502Z,25.38
2023-04-28T14:33:24.817Z,25.83
2023-04-28T14:35:51.695Z,25.00
2023-04-28T14:38:18.773Z,25.38
2023-04-28T14:40:45.518Z,25.98
2023-04-28T14:43:14.142Z,25.55
2023-04-28T14:45:41.421Z,25.92
2023-04-28T14:48:10.757Z,27.77
2023-04-28T14:50:37.910Z,26.92
2023-04-28T14:53:07.812Z,29.20
2023-04-28T14:55:34.869Z,27.67
2023-04-28T14:58:02.042Z,29.65
2023-04-28T15:00:29.589Z,31.15
2023-04-28T15:02:56.634Z,29.67
2023-04-28T15:05:23.496Z,29.02
2023-04-28T15:07:50.417Z,28.77
2023-04-28T15:10:17.866Z,26.95
2023-04-28T15:12:46.232Z,25.52
2023-04-28T15:15:13.242Z,24.23
2023-04-28T15:17:40.344Z,25.05
2023-04-28T15:20:08.143Z,23.23
2023-04-28T15:22:36.357Z,23.80
2023-04-28T15:25:06.060Z,24.02
2023-04-28T15:27:32.848Z,24.52
2023-04-28T15:29:59.593Z,24.20
2023-04-28T15:32:27.948Z,23.83
2023-04-28T15:34:56.606Z,21.85
2023-04-28T15:37:40.797Z,23.42
2023-04-28T15:40:09.256Z,21.33
2023-04-28T15:42:36.976Z,20.83
2023-04-28T15:45:04.112Z,20.25
2023-04-28T15:47:31.362Z,19.23
2023-04-28T15:50:01.629Z,18.83
2023-04-28T15:52:28.415Z,18.17
2023-04-28T15:54:56.278Z,17.38
2023-04-28T15:57:23.162Z,15.32
2023-04-28T15:59:51.691Z,16.75
2023-04-28T16:02:18.885Z,15.57
2023-04-28T16:04:47.101Z,16.33
2023-04-28T16:07:14.317Z,16.60
2023-04-28T16:09:41.119Z,15.85
2023-04-28T16:12:08.591Z,13.02
2023-04-28T16:14:36.428Z,13.63
2023-04-28T16:17:03.718Z,13.82
2023-04-28T16:19:30.740Z,14.07
2023-04-28T16:21:58.134Z,13.45
2023-04-28T16:24:25.929Z,12.18
2023-04-28T16:26:53.274Z,12.48
2023-04-28T16:29:20.230Z,11.98
2023-04-28T16:31:47.170Z,11.65
2023-04-28T16:34:14.071Z,11.05
2023-04-28T16:36:41.302Z,9.50
2023-04-28T16:39:09.557Z,10.18
2023-04-28T16:41:37.548Z,8.73
2023-04-28T16:44:04.289Z,7.60
2023-04-28T16:46:31.223Z,7.75
2023-04-28T16:48:58.540Z,6.82
2023-04-28T16:51:25.468Z,8.00
2023-04-28T16:53:52.378Z,7.22
2023-04-28T16:56:22.225Z,7.88
2023-04-28T16:58:48.989Z,8.57
2023-04-28T17:01:16.017Z,9.50
2023-04-28T17:03:42.983Z,8.68
2023-04-28T17:06:10.288Z,9.80
2023-04-28T17:08:37.400Z,10.88
2023-04-28T17:11:04.894Z,11.07
2023-04-28T17:13:33.165Z,10.65
2023-04-28T17:16:00.430Z,12.10
2023-04-28T17:18:28.570Z,12.43
2023-04-28T17:20:56.209Z,12.60
2023-04-28T17:23:23.406Z,12.82
2023-04-28T17:25:50.157Z,13.45
2023-04-28T17:28:17.084Z,14.88
2023-04-28T17:30:47.160Z,14.95
2023-04-28T17:33:15.349Z,16.13
2023-04-28T17:35:44.866Z,15.07
2023-04-28T17:38:11.606Z,14.88
2023-04-28T17:40:38.464Z,16.77
2023-04-28T17:43:05.950Z,17.77
2023-04-28T17:45:32.878Z,17.90
2023-04-28T17:48:02.643Z,18.48
2023-04-28T17:50:30.435Z,20.20
2023-04-28T17:52:59.685Z,20.40
2023-04-28T17:55:26.555Z,19.75
2023-04-28T17:57:53.263Z,20.33
2023-04-28T18:00:20.539Z,20.25
2023-04-28T18:02:47.305Z,21.98
2023-04-28T18:05:16.061Z,21.02
2023-04-28T18:07:43.026Z,21.83
2023-04-28T18:10:09.834Z,20.42
2023-04-28T18:12:36.542Z,22.60
2023-04-28T18:15:03.506Z,20.67
2023-04-28T18:17:30.473Z,21.63
2023-04-28T18:19:57.851Z,23.13
2023-04-28T18:22:24.908Z,21.45
2023-04-28T18:24:52.396Z,23.67
2023-04-28T18:27:19.418Z,22.80
2023-04-28T18:29:46.483Z,20.88
2023-04-28T18:32:15.051Z,22.10
2023-04-28T18:34:43.580Z,22.70
2023-04-28T18:37:10.624Z,21.95
2023-04-28T18:39:37.413Z,20.08
2023-04-28T18:42:04.576Z,20.25
2023-04-28T18:44:31.482Z,21.20
2023-04-28T18:46:58.600Z,20.73
2023-04-28T18:49:25.818Z,19.33
2023-04-28T18:51:52.952Z,21.85
2023-04-28T18:54:20.102Z,20.27
2023-04-28T18:56:48.254Z,19.58
2023-04-28T18:59:21.867Z,20.73
2023-04-28T19:01:49.495Z,22.02
2023-04-28T19:04:17.114Z,21.60
2023-04-28T19:06:44.503Z,21.90
2023-04-28T19:09:11.708Z,21.33
2023-04-28T19:11:38.600Z,21.33
2023-04-28T19:14:06.014Z,21.65
2023-04-28T19:16:32.768Z,21.92
2023-04-28T19:18:59.733Z,21.00
2023-04-28T19:21:26.673Z,21.60
2023-04-28T19:23:55.278Z,23.85
2023-04-28T19:26:22.069Z,22.08
2023-04-28T19:28:49.100Z,23.13
2023-04-28T19:31:16.276Z,25.13
2023-04-28T19:33:43.189Z,23.83
2023-04-28T19:36:10.152Z,24.30
2023-04-28T19:38:39.320Z,26.73
2023-04-28T19:41:06.278Z,25.17
2023-04-28T19:43:33.005Z,27.55
2023-04-28T19:45:59.743Z,26.80
2023-04-28T19:48:26.791Z,26.67
2023-04-28T19:50:54.161Z,25.52
2023-04-28T19:53:21.114Z,27.88
2023-04-28T19:55:47.865Z,29.05
2023-04-28T19:58:16.113Z,30.58
2023-04-28T20:00:43.226Z,28.88
2023-04-28T20:03:10.193Z,30.50
2023-04-28T20:05:39.928Z,31.80
2023-04-28T20:08:07.039Z,31.15
2023-04-28T20:10:33.763Z,33.33
2023-04-28T20:13:01.305Z,32.85
2023-04-28T20:15:28.188Z,34.85
2023-04-28T20:17:55.213Z,34.25
2023-04-28T20:20:22.344Z,32.67
2023-04-28T20:22:50.648Z,34.70
2023-04-28T20:25:17.603Z,36.08
2023-04-28T20:27:46.755Z,36.25
2023-04-28T20:30:14.144Z,34.95
2023-04-28T20:32:41.012Z,36.95
2023-04-28T20:35:08.078Z,35.92
2023-04-28T20:37:35.127Z,34.83
2023-04-28T20:40:01.841Z,33.85
2023-04-28T20:42:29.300Z,34.42
2023-04-28T20:44:56.052Z,36.13
2023-04-28T20:47:22.926Z,35.40
2023-04-28T20:49:49.841Z,36.08
2023-04-28T20:52:17.128Z,33.67
2023-04-28T20:54:43.910Z,35.63
2023-04-28T20:57:11.199Z,34.40
2023-04-28T20:59:38.107Z,33.22
2023-04-28T21:02:05.064Z,31.80
2023-04-28T21:04:31.921Z,31.50
2023-04-28T21:06:58.776Z,30.17
2023-04-28T21:09:25.672Z,31.77
2023-04-28T21:11:52.811Z,29.73
2023-04-28T21:14:20.155Z,29.45
2023-04-28T21:16:46.915Z,31.60
2023-04-28T21:19:13.688Z,29.08
2023-04-28T21:21:41.012Z,28.02
2023-04-28T21:24:09.287Z,29.40
2023-04-28T21:26:36.818Z,26.95
2023-04-28T21:29:03.620Z,25.55
2023-04-28T21:31:30.655Z,27.77
2023-04-28T21:33:58.055Z,28.13
2023-04-28T21:36:24.908Z,26.67
2023-04-28T21:38:51.839Z,25.40
2023-04-28T21:41:18.650Z,26.15
2023-04-28T21:43:45.914Z,26.88
2023-04-28T21:46:13.235Z,24.80
2023-04-28T21:48:40.096Z,25.75
2023-04-28T21:51:07.019Z,24.63
2023-04-28T21:53:33.800Z,24.02
2023-04-28T21:56:01.376Z,24.27
2023-04-28T21:58:28.083Z,25.65
2023-04-28T22:00:55.056Z,24.67
2023-04-28T22:03:22.250Z,25.67
2023-04-28T22:05:49.451Z,25.13
2023-04-28T22:08:16.819Z,25.98
2023-04-28T22:10:47.704Z,27.60
2023-04-28T22:13:14.402Z,28.33
2023-04-28T22:15:42.569Z,25.17
2023-04-28T22:18:09.397Z,27.23
2023-04-28T22:20:36.665Z,26.55
2023-04-28T22:23:03.530Z,25.35
2023-04-28T22:25:30.356Z,27.33
2023-04-28T22:27:57.090Z,26.73
2023-04-28T22:30:25.952Z,28.67
2023-04-28T22:32:53.260Z,25.85
2023-04-28T22:35:20.299Z,28.25
2023-04-28T22:37:47.167Z,27.45
2023-04-28T22:40:14.027Z,26.25
2023-04-28T22:42:41.854Z,27.92
2023-04-28T22:45:10.636Z,27.27
2023-04-28T22:47:40.345Z,27.85
2023-04-28T22:50:09.204Z,27.65
2023-04-28T22:52:36.590Z,28.42
2023-04-28T22:55:03.907Z,28.67
2023-04-28T22:57:30.697Z,28.63
2023-04-28T22:59:57.530Z,27.98
2023-04-28T23:02:24.827Z,28.48
2023-04-28T23:04:51.796Z,29.58
2023-04-28T23:07:18.669Z,30.88
2023-04-28T23:09:45.357Z,29.85
2023-04-28T23:12:12.109Z,30.63
2023-04-28T23:14:38.792Z,30.98
2023-04-28T23:17:05.612Z,33.80
2023-04-28T23:19:32.310Z,32.30
2023-04-28T23:21:59.078Z,32.22
2023-04-28T23:24:27.098Z,32.28
2023-04-28T23:26:53.828Z,35.30
2023-04-28T23:29:20.565Z,33.42
2023-04-28T23:31:52.173Z,35.83
2023-04-28T23:34:19.190Z,32.53
2023-04-28T23:36:46.080Z,34.58
2023-04-28T23:39:13.180Z,35.67
2023-04-28T23:41:39.896Z,35.35
2023-04-28T23:44:06.683Z,36.25
2023-04-28T23:46:33.479Z,37.35
2023-04-28T23:49:00.317Z,35.42
2023-04-28T23:51:27.076Z,32.22
2023-04-28T23:53:53.765Z,31.98
2023-04-28T23:56:20.551Z,33.90
2023-04-28T23:58:47.253Z,34.83
